Aeroporto :
LOGIN :

Iscrizione | Disclaimer

   EN    FR    IT 

 










Sommario :    VFR   VFR Marginale   IFR   IFR Intensivo   IFR Molto Intensivo
Visibilità : 
Base nubi : 
>= 8 km
>= 3000ft
5 / 8 km
1000 / 3000 ft
1500m / 5 km
500 / 1000 ft
800 / 1500m
200 / 500 ft
< 800m
< 200 ft
Simboli :   Temporali  Nebbia  Neve Forte  Precipitazioni Forti  Vento > 20 kt
SIGMETs :   Varie  Temporali  Ghiacco  Turbolenza  Onda orograficha  Ceneri Vulcaniche






- Altitudine del aeroporto : 287 ft


LFRL - Lanveoc Poulmic

ULTIMO METAR :
  • 221700Z AUTO 02004KT 340V050 9999 FEW019 12/08 Q1021 NOSIG

METARs OBSOLETI :
  • 221630Z AUTO 33003KT 9999 SCT048 14/07 Q1021 NOSIG
  • 221600Z AUTO 33003KT 9999 FEW036 BKN045 15/07 Q1021 NOSIG
  • 221530Z AUTO VRB03KT CAVOK 16/07 Q1021 NOSIG
  • 221500Z AUTO VRB02KT CAVOK 16/07 Q1021 NOSIG
  • 221430Z AUTO VRB03KT CAVOK 16/06 Q1022 NOSIG

TAF TAF LFRL
Valido dal 22 a 12 ore il 23 a 12 ore UTC


221100Z 2212/2312 07005KT CAVOK
TEMPO 2303/2309 3000 BR
PROB30
TEMPO 2304/2308 0500 FG VV///
BECMG 2310/2312 -RADZ OVC025



MetMap, La meteo Aeronautica in un colpo d'occhio ! - Copyright ORBIFLY Dicembre 2007 - Disclaimer

ORBIFLY MET'MAP TEAM :

Programmazione e sviluppo : Alexandra Zaïnal
Concezione e sviluppo : Baudouin d'Aumeries
Co-Programmazione e sviluppo : Marc-Olivier Méhu
Supporto tecnico e logistico : Manuel Goepfert
Aiuto per la traduzione : Arnaldo La Scala

Contatto : metmap@orbifly.com




FONTI E CREDITI :

   NOAA